sensor_id;sensor_type;location;lat;lon;timestamp;pressure;altitude;pressure_sealevel;temperature;humidity
15260;BME280;34462;51.368;12.364;2023-04-19T00:02:06;19476.47;;;-141.84;69.87
15260;BME280;34462;51.368;12.364;2023-04-19T00:04:35;19415.50;;;-141.84;70.02
15260;BME280;34462;51.368;12.364;2023-04-19T00:07:05;19429.75;;;-141.84;68.97
15260;BME280;34462;51.368;12.364;2023-04-19T00:09:33;19456.16;;;-141.84;69.33
15260;BME280;34462;51.368;12.364;2023-04-19T00:12:03;19439.91;;;-141.84;69.36
15260;BME280;34462;51.368;12.364;2023-04-19T00:14:31;19419.59;;;-141.84;68.81
15260;BME280;34462;51.368;12.364;2023-04-19T00:16:59;19446.00;;;-141.84;68.25
15260;BME280;34462;51.368;12.364;2023-04-19T00:19:27;19427.72;;;-141.84;67.46
15260;BME280;34462;51.368;12.364;2023-04-19T00:21:55;19456.16;;;-141.84;67.23
15260;BME280;34462;51.368;12.364;2023-04-19T00:24:24;19460.22;;;-141.84;68.45
15260;BME280;34462;51.368;12.364;2023-04-19T00:26:52;19472.41;;;-141.84;67.97
15260;BME280;34462;51.368;12.364;2023-04-19T00:29:21;19405.34;;;-141.84;68.24
15260;BME280;34462;51.368;12.364;2023-04-19T00:31:49;19423.66;;;-141.84;68.44
15260;BME280;34462;51.368;12.364;2023-04-19T00:34:18;19446.00;;;-141.84;67.35
15260;BME280;34462;51.368;12.364;2023-04-19T00:36:47;19466.31;;;-141.84;67.84
15260;BME280;34462;51.368;12.364;2023-04-19T00:39:15;19417.56;;;-141.84;68.49
15260;BME280;34462;51.368;12.364;2023-04-19T00:41:43;19427.72;;;-141.84;68.20
15260;BME280;34462;51.368;12.364;2023-04-19T00:44:11;19425.69;;;-141.84;68.01
15260;BME280;34462;51.368;12.364;2023-04-19T00:46:42;19437.88;;;-141.84;67.26
15260;BME280;34462;51.368;12.364;2023-04-19T00:49:11;19423.66;;;-141.84;67.65
15260;BME280;34462;51.368;12.364;2023-04-19T00:51:39;19431.78;;;-141.84;67.11
15260;BME280;34462;51.368;12.364;2023-04-19T00:54:08;19421.63;;;-141.84;66.66
15260;BME280;34462;51.368;12.364;2023-04-19T00:56:37;19405.34;;;-141.84;67.82
15260;BME280;34462;51.368;12.364;2023-04-19T00:59:06;19429.75;;;-141.84;67.87
15260;BME280;34462;51.368;12.364;2023-04-19T01:01:34;19437.88;;;-141.84;67.94
15260;BME280;34462;51.368;12.364;2023-04-19T01:04:05;19413.47;;;-141.84;67.73
15260;BME280;34462;51.368;12.364;2023-04-19T01:06:35;19411.44;;;-141.84;67.46
15260;BME280;34462;51.368;12.364;2023-04-19T01:09:04;19427.72;;;-141.84;68.42
15260;BME280;34462;51.368;12.364;2023-04-19T01:11:33;19397.22;;;-141.84;68.33
15260;BME280;34462;51.368;12.364;2023-04-19T01:14:01;19391.13;;;-141.84;68.44
15260;BME280;34462;51.368;12.364;2023-04-19T01:16:29;19415.50;;;-141.84;68.24
15260;BME280;34462;51.368;12.364;2023-04-19T01:18:59;19389.09;;;-141.84;69.01
15260;BME280;34462;51.368;12.364;2023-04-19T01:21:28;19354.56;;;-141.84;69.10
15260;BME280;34462;51.368;12.364;2023-04-19T01:23:59;19403.31;;;-141.84;68.89
15260;BME280;34462;51.368;12.364;2023-04-19T01:26:27;19380.97;;;-141.84;68.99
15260;BME280;34462;51.368;12.364;2023-04-19T01:28:56;19399.25;;;-141.84;68.71
15260;BME280;34462;51.368;12.364;2023-04-19T01:31:24;19397.22;;;-141.84;69.78
15260;BME280;34462;51.368;12.364;2023-04-19T01:33:52;19383.00;;;-141.84;69.56
15260;BME280;34462;51.368;12.364;2023-04-19T01:36:20;19391.13;;;-141.84;69.77
15260;BME280;34462;51.368;12.364;2023-04-19T01:38:49;19374.88;;;-141.84;70.01
15260;BME280;34462;51.368;12.364;2023-04-19T01:41:18;19383.00;;;-141.84;69.20
15260;BME280;34462;51.368;12.364;2023-04-19T01:43:48;19385.03;;;-141.84;69.46
15260;BME280;34462;51.368;12.364;2023-04-19T01:46:16;19380.97;;;-141.84;69.93
15260;BME280;34462;51.368;12.364;2023-04-19T01:48:44;19328.13;;;-141.84;70.70
15260;BME280;34462;51.368;12.364;2023-04-19T01:51:12;19330.16;;;-141.84;70.80
15260;BME280;34462;51.368;12.364;2023-04-19T01:53:43;19360.66;;;-141.84;70.49
15260;BME280;34462;51.368;12.364;2023-04-19T01:56:11;19374.88;;;-141.84;70.62
15260;BME280;34462;51.368;12.364;2023-04-19T01:58:40;19340.31;;;-141.84;70.97
15260;BME280;34462;51.368;12.364;2023-04-19T02:01:08;19366.75;;;-141.84;70.99
15260;BME280;34462;51.368;12.364;2023-04-19T02:03:38;19334.22;;;-141.84;71.06
15260;BME280;34462;51.368;12.364;2023-04-19T02:06:10;19342.34;;;-141.84;71.90
15260;BME280;34462;51.368;12.364;2023-04-19T02:08:40;19364.72;;;-141.84;71.20
15260;BME280;34462;51.368;12.364;2023-04-19T02:11:09;19332.19;;;-141.84;71.58
15260;BME280;34462;51.368;12.364;2023-04-19T02:13:41;19340.31;;;-141.84;71.56
15260;BME280;34462;51.368;12.364;2023-04-19T02:16:10;19346.44;;;-141.84;71.50
15260;BME280;34462;51.368;12.364;2023-04-19T02:18:38;19285.47;;;-141.84;72.44
15260;BME280;34462;51.368;12.364;2023-04-19T02:21:08;19307.81;;;-141.84;72.51
15260;BME280;34462;51.368;12.364;2023-04-19T02:23:36;19297.66;;;-141.84;72.53
15260;BME280;34462;51.368;12.364;2023-04-19T02:26:05;19285.47;;;-141.84;73.30
15260;BME280;34462;51.368;12.364;2023-04-19T02:28:33;19317.97;;;-141.84;73.54
15260;BME280;34462;51.368;12.364;2023-04-19T02:31:05;19265.13;;;-141.84;73.41
15260;BME280;34462;51.368;12.364;2023-04-19T02:33:34;19317.97;;;-141.84;72.85
15260;BME280;34462;51.368;12.364;2023-04-19T02:36:03;19277.34;;;-141.84;73.36
15260;BME280;34462;51.368;12.364;2023-04-19T02:38:31;19289.53;;;-141.84;74.45
15260;BME280;34462;51.368;12.364;2023-04-19T02:40:59;19273.28;;;-141.84;74.24
15260;BME280;34462;51.368;12.364;2023-04-19T02:43:30;19287.50;;;-141.84;73.86
15260;BME280;34462;51.368;12.364;2023-04-19T02:45:58;19285.47;;;-141.84;73.25
15260;BME280;34462;51.368;12.364;2023-04-19T02:48:28;19303.75;;;-141.84;73.16
15260;BME280;34462;51.368;12.364;2023-04-19T02:50:56;19283.44;;;-141.84;73.83
15260;BME280;34462;51.368;12.364;2023-04-19T02:53:24;19269.22;;;-141.84;73.49
15260;BME280;34462;51.368;12.364;2023-04-19T02:55:52;19289.53;;;-141.84;73.64
15260;BME280;34462;51.368;12.364;2023-04-19T02:58:21;19246.84;;;-141.84;73.41
15260;BME280;34462;51.368;12.364;2023-04-19T03:00:49;19232.63;;;-141.84;73.78
15260;BME280;34462;51.368;12.364;2023-04-19T03:03:17;19273.28;;;-141.84;74.37
15260;BME280;34462;51.368;12.364;2023-04-19T03:05:47;19281.41;;;-141.84;73.91
15260;BME280;34462;51.368;12.364;2023-04-19T03:08:15;19254.97;;;-141.84;73.95
15260;BME280;34462;51.368;12.364;2023-04-19T03:10:43;19248.88;;;-141.84;73.35
15260;BME280;34462;51.368;12.364;2023-04-19T03:13:11;19238.72;;;-141.84;73.40
15260;BME280;34462;51.368;12.364;2023-04-19T03:15:40;19242.78;;;-141.84;72.93
15260;BME280;34462;51.368;12.364;2023-04-19T03:18:08;19261.06;;;-141.84;72.71
15260;BME280;34462;51.368;12.364;2023-04-19T03:20:36;19281.41;;;-141.84;72.43
15260;BME280;34462;51.368;12.364;2023-04-19T03:23:05;19283.44;;;-141.84;72.10
15260;BME280;34462;51.368;12.364;2023-04-19T03:25:34;19254.97;;;-141.84;72.20
15260;BME280;34462;51.368;12.364;2023-04-19T03:28:02;19254.97;;;-141.84;72.75
15260;BME280;34462;51.368;12.364;2023-04-19T03:30:30;19232.63;;;-141.84;73.20
15260;BME280;34462;51.368;12.364;2023-04-19T03:32:58;19263.09;;;-141.84;72.96
15260;BME280;34462;51.368;12.364;2023-04-19T03:35:26;19244.81;;;-141.84;71.90
15260;BME280;34462;51.368;12.364;2023-04-19T03:37:57;19305.78;;;-141.84;71.35
15260;BME280;34462;51.368;12.364;2023-04-19T03:40:26;19279.38;;;-141.84;71.57
15260;BME280;34462;51.368;12.364;2023-04-19T03:42:54;19299.69;;;-141.84;71.26
15260;BME280;34462;51.368;12.364;2023-04-19T03:45:23;19287.50;;;-141.84;70.87
15260;BME280;34462;51.368;12.364;2023-04-19T03:47:51;19295.63;;;-141.84;70.80
15260;BME280;34462;51.368;12.364;2023-04-19T03:50:19;19259.03;;;-141.84;70.36
15260;BME280;34462;51.368;12.364;2023-04-19T03:52:47;19269.22;;;-141.84;70.26
15260;BME280;34462;51.368;12.364;2023-04-19T03:55:16;19261.06;;;-141.84;69.36
15260;BME280;34462;51.368;12.364;2023-04-19T03:57:45;19271.25;;;-141.84;69.99
15260;BME280;34462;51.368;12.364;2023-04-19T04:00:14;19265.13;;;-141.84;69.63
15260;BME280;34462;51.368;12.364;2023-04-19T04:02:43;19297.66;;;-141.84;69.09
15260;BME280;34462;51.368;12.364;2023-04-19T04:05:11;19275.31;;;-141.84;69.42
15260;BME280;34462;51.368;12.364;2023-04-19T04:07:39;19283.44;;;-141.84;68.73
15260;BME280;34462;51.368;12.364;2023-04-19T04:10:08;19283.44;;;-141.84;68.56
15260;BME280;34462;51.368;12.364;2023-04-19T04:12:36;19297.66;;;-141.84;67.99
15260;BME280;34462;51.368;12.364;2023-04-19T04:15:08;19313.91;;;-141.84;67.37
15260;BME280;34462;51.368;12.364;2023-04-19T04:17:36;19295.63;;;-141.84;66.87
15260;BME280;34462;51.368;12.364;2023-04-19T04:20:06;19267.16;;;-141.84;67.14
15260;BME280;34462;51.368;12.364;2023-04-19T04:22:40;19281.41;;;-141.84;67.68
15260;BME280;34462;51.368;12.364;2023-04-19T04:25:09;19309.84;;;-141.84;66.17
15260;BME280;34462;51.368;12.364;2023-04-19T04:27:38;19334.22;;;-141.84;65.23
15260;BME280;34462;51.368;12.364;2023-04-19T04:30:09;19285.47;;;-141.84;65.77
15260;BME280;34462;51.368;12.364;2023-04-19T04:32:37;19309.84;;;-141.84;64.96
15260;BME280;34462;51.368;12.364;2023-04-19T04:35:08;19297.66;;;-141.84;65.23
15260;BME280;34462;51.368;12.364;2023-04-19T04:37:37;19301.72;;;-141.84;65.53
15260;BME280;34462;51.368;12.364;2023-04-19T04:40:07;19289.53;;;-141.84;64.94
15260;BME280;34462;51.368;12.364;2023-04-19T04:42:36;19330.16;;;-141.84;64.62
15260;BME280;34462;51.368;12.364;2023-04-19T04:45:07;19293.59;;;-141.84;64.77
15260;BME280;34462;51.368;12.364;2023-04-19T04:47:36;19326.09;;;-141.84;64.07
15260;BME280;34462;51.368;12.364;2023-04-19T04:50:06;19334.22;;;-141.84;63.88
15260;BME280;34462;51.368;12.364;2023-04-19T04:52:35;19317.97;;;-141.84;63.80
15260;BME280;34462;51.368;12.364;2023-04-19T04:55:04;19283.44;;;-141.84;63.85
15260;BME280;34462;51.368;12.364;2023-04-19T04:57:33;19360.66;;;-141.84;63.50
15260;BME280;34462;51.368;12.364;2023-04-19T05:00:01;19328.13;;;-141.84;62.42
15260;BME280;34462;51.368;12.364;2023-04-19T05:02:32;19356.59;;;-141.84;62.21
15260;BME280;34462;51.368;12.364;2023-04-19T05:05:00;19372.84;;;-141.84;61.33
15260;BME280;34462;51.368;12.364;2023-04-19T05:07:29;19354.56;;;-141.84;61.17
15260;BME280;34462;51.368;12.364;2023-04-19T05:09:57;19368.78;;;-141.84;59.99
15260;BME280;34462;51.368;12.364;2023-04-19T05:12:25;19354.56;;;-141.84;60.73
15260;BME280;34462;51.368;12.364;2023-04-19T05:14:53;19352.53;;;-141.84;60.24
15260;BME280;34462;51.368;12.364;2023-04-19T05:17:21;19385.03;;;-141.84;59.18
15260;BME280;34462;51.368;12.364;2023-04-19T05:19:51;19366.75;;;-141.84;58.20
15260;BME280;34462;51.368;12.364;2023-04-19T05:22:19;19380.97;;;-141.84;59.35
15260;BME280;34462;51.368;12.364;2023-04-19T05:24:47;19421.63;;;-141.84;57.00
15260;BME280;34462;51.368;12.364;2023-04-19T05:27:16;19395.19;;;-141.84;55.68
15260;BME280;34462;51.368;12.364;2023-04-19T05:29:44;19407.38;;;-141.84;54.68
15260;BME280;34462;51.368;12.364;2023-04-19T05:32:13;19448.03;;;-141.84;54.34
15260;BME280;34462;51.368;12.364;2023-04-19T05:34:41;19448.03;;;-141.84;53.97
15260;BME280;34462;51.368;12.364;2023-04-19T05:37:10;19421.63;;;-141.84;53.84
15260;BME280;34462;51.368;12.364;2023-04-19T05:39:38;19429.75;;;-141.84;53.70
15260;BME280;34462;51.368;12.364;2023-04-19T05:42:10;19439.91;;;-141.84;53.63
15260;BME280;34462;51.368;12.364;2023-04-19T05:44:38;19419.59;;;-141.84;53.70
15260;BME280;34462;51.368;12.364;2023-04-19T05:47:06;19439.91;;;-141.84;53.15
15260;BME280;34462;51.368;12.364;2023-04-19T05:49:34;19452.09;;;-141.84;52.63
15260;BME280;34462;51.368;12.364;2023-04-19T05:52:03;19476.47;;;-141.84;52.49
15260;BME280;34462;51.368;12.364;2023-04-19T05:54:32;19460.22;;;-141.84;53.21
15260;BME280;34462;51.368;12.364;2023-04-19T05:57:02;19480.53;;;-141.84;53.47
15260;BME280;34462;51.368;12.364;2023-04-19T05:59:30;19496.81;;;-141.84;53.41
15260;BME280;34462;51.368;12.364;2023-04-19T06:01:58;19474.44;;;-141.84;53.86
15260;BME280;34462;51.368;12.364;2023-04-19T06:04:27;19517.13;;;-141.84;53.16
15260;BME280;34462;51.368;12.364;2023-04-19T06:06:56;19511.03;;;-141.84;52.62
15260;BME280;34462;51.368;12.364;2023-04-19T06:09:24;19509.00;;;-141.84;52.34
15260;BME280;34462;51.368;12.364;2023-04-19T06:11:53;19509.00;;;-141.84;52.23
15260;BME280;34462;51.368;12.364;2023-04-19T06:14:22;19515.09;;;-141.84;51.72
15260;BME280;34462;51.368;12.364;2023-04-19T06:16:51;19565.91;;;-141.84;51.65
15260;BME280;34462;51.368;12.364;2023-04-19T06:19:19;19533.38;;;-141.84;52.06
15260;BME280;34462;51.368;12.364;2023-04-19T06:21:47;19565.91;;;-141.84;51.79
15260;BME280;34462;51.368;12.364;2023-04-19T06:24:15;19561.84;;;-141.84;51.54
15260;BME280;34462;51.368;12.364;2023-04-19T06:26:44;19515.09;;;-141.84;52.19
15260;BME280;34462;51.368;12.364;2023-04-19T06:29:15;19517.13;;;-141.84;51.95
15260;BME280;34462;51.368;12.364;2023-04-19T06:31:46;19537.44;;;-141.84;51.94
15260;BME280;34462;51.368;12.364;2023-04-19T06:34:14;19521.19;;;-141.84;52.29
15260;BME280;34462;51.368;12.364;2023-04-19T06:36:43;19476.47;;;-141.84;52.75
15260;BME280;34462;51.368;12.364;2023-04-19T06:39:11;19484.59;;;-141.84;52.69
15260;BME280;34462;51.368;12.364;2023-04-19T06:41:39;19474.44;;;-141.84;52.79
15260;BME280;34462;51.368;12.364;2023-04-19T06:44:07;19490.72;;;-141.84;52.96
15260;BME280;34462;51.368;12.364;2023-04-19T06:46:37;19517.13;;;-141.84;53.51
15260;BME280;34462;51.368;12.364;2023-04-19T06:49:05;19509.00;;;-141.84;53.37
15260;BME280;34462;51.368;12.364;2023-04-19T06:51:33;19482.56;;;-141.84;52.53
15260;BME280;34462;51.368;12.364;2023-04-19T06:54:02;19517.13;;;-141.84;53.34
15260;BME280;34462;51.368;12.364;2023-04-19T06:56:41;19535.41;;;-141.84;52.82
15260;BME280;34462;51.368;12.364;2023-04-19T06:59:12;19484.59;;;-141.84;52.66
15260;BME280;34462;51.368;12.364;2023-04-19T07:01:44;19500.88;;;-141.84;53.02
15260;BME280;34462;51.368;12.364;2023-04-19T07:04:13;19464.28;;;-141.84;53.72
15260;BME280;34462;51.368;12.364;2023-04-19T07:06:42;19494.78;;;-141.84;53.41
15260;BME280;34462;51.368;12.364;2023-04-19T07:09:11;19500.88;;;-141.84;53.02
15260;BME280;34462;51.368;12.364;2023-04-19T07:11:39;19513.06;;;-141.84;53.25
15260;BME280;34462;51.368;12.364;2023-04-19T07:14:07;19472.41;;;-141.84;54.23
15260;BME280;34462;51.368;12.364;2023-04-19T07:16:35;19472.41;;;-141.84;54.49
15260;BME280;34462;51.368;12.364;2023-04-19T07:19:05;19523.22;;;-141.84;54.31
15260;BME280;34462;51.368;12.364;2023-04-19T07:21:33;19531.34;;;-141.84;54.04
15260;BME280;34462;51.368;12.364;2023-04-19T07:24:01;19590.28;;;-141.84;53.27
15260;BME280;34462;51.368;12.364;2023-04-19T07:26:30;19643.13;;;-141.84;51.04
15260;BME280;34462;51.368;12.364;2023-04-19T07:28:58;19679.72;;;-141.84;50.54
15260;BME280;34462;51.368;12.364;2023-04-19T07:31:27;19695.97;;;-141.84;50.09
15260;BME280;34462;51.368;12.364;2023-04-19T07:33:55;19659.38;;;-141.84;50.54
15260;BME280;34462;51.368;12.364;2023-04-19T07:36:25;19578.09;;;-141.84;51.35
15260;BME280;34462;51.368;12.364;2023-04-19T07:38:53;19628.91;;;-141.84;51.99
15260;BME280;34462;51.368;12.364;2023-04-19T07:41:21;19630.94;;;-141.84;51.90
15260;BME280;34462;51.368;12.364;2023-04-19T07:43:50;19612.63;;;-141.84;50.85
15260;BME280;34462;51.368;12.364;2023-04-19T07:46:18;19569.97;;;-141.84;51.37
15260;BME280;34462;51.368;12.364;2023-04-19T07:48:46;19610.59;;;-141.84;51.64
15260;BME280;34462;51.368;12.364;2023-04-19T07:51:15;19588.25;;;-141.84;51.51
15260;BME280;34462;51.368;12.364;2023-04-19T07:53:46;19578.09;;;-141.84;51.12
15260;BME280;34462;51.368;12.364;2023-04-19T07:56:15;19598.41;;;-141.84;51.30
15260;BME280;34462;51.368;12.364;2023-04-19T07:58:43;19596.38;;;-141.84;51.78
15260;BME280;34462;51.368;12.364;2023-04-19T08:01:22;19612.63;;;-141.84;52.33
15260;BME280;34462;51.368;12.364;2023-04-19T08:03:51;19612.63;;;-141.84;52.04
15260;BME280;34462;51.368;12.364;2023-04-19T08:06:19;19614.66;;;-141.84;52.29
15260;BME280;34462;51.368;12.364;2023-04-19T08:08:49;19578.09;;;-141.84;52.59
15260;BME280;34462;51.368;12.364;2023-04-19T08:11:17;19590.28;;;-141.84;52.41
15260;BME280;34462;51.368;12.364;2023-04-19T08:13:45;19614.66;;;-141.84;52.06
15260;BME280;34462;51.368;12.364;2023-04-19T08:16:32;19620.78;;;-141.84;51.69
15260;BME280;34462;51.368;12.364;2023-04-19T08:19:20;19598.41;;;-141.84;51.61
15260;BME280;34462;51.368;12.364;2023-04-19T08:21:48;19622.81;;;-141.84;51.67
15260;BME280;34462;51.368;12.364;2023-04-19T08:24:18;19614.66;;;-141.84;51.80
15260;BME280;34462;51.368;12.364;2023-04-19T08:26:46;19659.38;;;-141.84;51.15
15260;BME280;34462;51.368;12.364;2023-04-19T08:29:19;19669.53;;;-141.84;50.33
15260;BME280;34462;51.368;12.364;2023-04-19T08:31:48;19643.13;;;-141.84;50.05
15260;BME280;34462;51.368;12.364;2023-04-19T08:34:16;19661.41;;;-141.84;49.95
15260;BME280;34462;51.368;12.364;2023-04-19T08:36:44;19667.50;;;-141.84;50.19
15260;BME280;34462;51.368;12.364;2023-04-19T08:39:31;19712.22;;;-141.84;49.68
15260;BME280;34462;51.368;12.364;2023-04-19T08:42:04;19643.13;;;-141.84;49.28
15260;BME280;34462;51.368;12.364;2023-04-19T08:44:39;19651.25;;;-141.84;49.67
15260;BME280;34462;51.368;12.364;2023-04-19T08:47:28;19689.88;;;-141.84;50.09
15260;BME280;34462;51.368;12.364;2023-04-19T08:50:01;19710.19;;;-141.84;49.62
15260;BME280;34462;51.368;12.364;2023-04-19T08:52:50;19740.69;;;-141.84;49.16
15260;BME280;34462;51.368;12.364;2023-04-19T08:55:30;19728.47;;;-141.84;49.30
15260;BME280;34462;51.368;12.364;2023-04-19T08:57:58;19779.28;;;-141.84;48.98
15260;BME280;34462;51.368;12.364;2023-04-19T09:00:38;19765.06;;;-141.84;48.76
15260;BME280;34462;51.368;12.364;2023-04-19T09:03:07;19807.75;;;-141.84;49.02
15260;BME280;34462;51.368;12.364;2023-04-19T09:05:35;19789.44;;;-141.84;48.14
15260;BME280;34462;51.368;12.364;2023-04-19T09:08:22;19799.63;;;-141.84;47.96
15260;BME280;34462;51.368;12.364;2023-04-19T09:10:57;19809.78;;;-141.84;48.42
15260;BME280;34462;51.368;12.364;2023-04-19T09:13:27;19824.00;;;-141.84;47.11
15260;BME280;34462;51.368;12.364;2023-04-19T09:15:56;19821.97;;;-141.84;47.10
15260;BME280;34462;51.368;12.364;2023-04-19T09:18:26;19801.66;;;-141.84;47.06
15260;BME280;34462;51.368;12.364;2023-04-19T09:20:59;19809.78;;;-141.84;47.38
15260;BME280;34462;51.368;12.364;2023-04-19T09:23:27;19872.78;;;-141.84;47.19
15260;BME280;34462;51.368;12.364;2023-04-19T09:25:58;19856.53;;;-141.84;46.81
15260;BME280;34462;51.368;12.364;2023-04-19T09:28:55;19907.31;;;-141.84;46.72
15260;BME280;34462;51.368;12.364;2023-04-19T09:31:27;19874.81;;;-141.84;46.57
15260;BME280;34462;51.368;12.364;2023-04-19T09:34:17;19830.09;;;-141.84;47.03
15260;BME280;34462;51.368;12.364;2023-04-19T09:36:45;19866.69;;;-141.84;46.96
15260;BME280;34462;51.368;12.364;2023-04-19T09:39:30;19919.53;;;-141.84;46.00
15260;BME280;34462;51.368;12.364;2023-04-19T09:42:00;19893.09;;;-141.84;44.97
15260;BME280;34462;51.368;12.364;2023-04-19T09:44:29;19889.03;;;-141.84;45.26
15260;BME280;34462;51.368;12.364;2023-04-19T09:47:26;19923.59;;;-141.84;44.20
15260;BME280;34462;51.368;12.364;2023-04-19T09:50:05;19878.88;;;-141.84;44.26
15260;BME280;34462;51.368;12.364;2023-04-19T09:52:49;19931.72;;;-141.84;43.50
15260;BME280;34462;51.368;12.364;2023-04-19T09:55:19;19915.47;;;-141.84;44.00
15260;BME280;34462;51.368;12.364;2023-04-19T09:57:55;19931.72;;;-141.84;43.99
15260;BME280;34462;51.368;12.364;2023-04-19T10:00:24;19939.84;;;-141.84;43.21
15260;BME280;34462;51.368;12.364;2023-04-19T10:02:56;19943.91;;;-141.84;43.45
15260;BME280;34462;51.368;12.364;2023-04-19T10:05:25;19917.50;;;-141.84;43.83
15260;BME280;34462;51.368;12.364;2023-04-19T10:07:54;19988.63;;;-141.84;43.30
15260;BME280;34462;51.368;12.364;2023-04-19T10:10:26;20019.13;;;-141.84;42.97
15260;BME280;34462;51.368;12.364;2023-04-19T10:13:11;19998.78;;;-141.84;42.50
15260;BME280;34462;51.368;12.364;2023-04-19T10:15:43;20008.94;;;-141.84;42.75
15260;BME280;34462;51.368;12.364;2023-04-19T10:18:23;20006.91;;;-141.84;43.01
15260;BME280;34462;51.368;12.364;2023-04-19T10:20:58;20013.00;;;-141.84;43.74
15260;BME280;34462;51.368;12.364;2023-04-19T10:23:28;20037.41;;;-141.84;43.01
15260;BME280;34462;51.368;12.364;2023-04-19T10:25:58;20074.00;;;-141.84;43.32
15260;BME280;34462;51.368;12.364;2023-04-19T10:28:29;20059.75;;;-141.84;42.32
15260;BME280;34462;51.368;12.364;2023-04-19T10:30:59;20059.75;;;-141.84;42.31
15260;BME280;34462;51.368;12.364;2023-04-19T10:33:30;20122.78;;;-141.84;42.51
15260;BME280;34462;51.368;12.364;2023-04-19T10:36:02;20100.41;;;-141.84;42.93
15260;BME280;34462;51.368;12.364;2023-04-19T10:38:37;20102.44;;;-141.84;42.62
15260;BME280;34462;51.368;12.364;2023-04-19T10:41:05;20114.63;;;-141.84;42.46
15260;BME280;34462;51.368;12.364;2023-04-19T10:43:47;20047.56;;;-141.84;42.36
15260;BME280;34462;51.368;12.364;2023-04-19T10:46:35;20082.13;;;-141.84;42.95
15260;BME280;34462;51.368;12.364;2023-04-19T10:49:05;20216.25;;;-141.84;42.13
15260;BME280;34462;51.368;12.364;2023-04-19T10:51:35;20206.09;;;-141.84;41.55
15260;BME280;34462;51.368;12.364;2023-04-19T10:54:06;20163.41;;;-141.84;41.81
15260;BME280;34462;51.368;12.364;2023-04-19T10:57:00;20177.66;;;-141.84;42.39
15260;BME280;34462;51.368;12.364;2023-04-19T10:59:33;20149.19;;;-141.84;41.71
15260;BME280;34462;51.368;12.364;2023-04-19T11:02:03;20130.91;;;-141.84;41.64
15260;BME280;34462;51.368;12.364;2023-04-19T11:04:59;20155.28;;;-141.84;42.35
15260;BME280;34462;51.368;12.364;2023-04-19T11:07:36;20132.94;;;-141.84;41.97
15260;BME280;34462;51.368;12.364;2023-04-19T11:10:05;20130.91;;;-141.84;42.67
15260;BME280;34462;51.368;12.364;2023-04-19T11:12:33;20163.41;;;-141.84;43.06
15260;BME280;34462;51.368;12.364;2023-04-19T11:15:05;20181.72;;;-141.84;42.56
15260;BME280;34462;51.368;12.364;2023-04-19T11:17:36;20157.31;;;-141.84;41.86
15260;BME280;34462;51.368;12.364;2023-04-19T11:20:07;20114.63;;;-141.84;42.08
15260;BME280;34462;51.368;12.364;2023-04-19T11:22:38;20155.28;;;-141.84;42.11
15260;BME280;34462;51.368;12.364;2023-04-19T11:25:10;20226.44;;;-141.84;41.83
15260;BME280;34462;51.368;12.364;2023-04-19T11:27:40;20240.66;;;-141.84;41.46
15260;BME280;34462;51.368;12.364;2023-04-19T11:30:13;20267.09;;;-141.84;40.93
15260;BME280;34462;51.368;12.364;2023-04-19T11:32:47;20200.00;;;-141.84;41.60
15260;BME280;34462;51.368;12.364;2023-04-19T11:35:19;20222.38;;;-141.84;41.63
15260;BME280;34462;51.368;12.364;2023-04-19T11:37:48;20163.41;;;-141.84;41.76
15260;BME280;34462;51.368;12.364;2023-04-19T11:40:19;20193.91;;;-141.84;41.89
15260;BME280;34462;51.368;12.364;2023-04-19T11:42:54;20202.03;;;-141.84;42.03
15260;BME280;34462;51.368;12.364;2023-04-19T11:45:28;20258.94;;;-141.84;41.35
15260;BME280;34462;51.368;12.364;2023-04-19T11:48:03;20285.38;;;-141.84;40.80
15260;BME280;34462;51.368;12.364;2023-04-19T11:50:35;20299.59;;;-141.84;41.10
15260;BME280;34462;51.368;12.364;2023-04-19T11:53:13;20279.28;;;-141.84;41.39
15260;BME280;34462;51.368;12.364;2023-04-19T11:55:43;20254.88;;;-141.84;41.49
15260;BME280;34462;51.368;12.364;2023-04-19T11:58:30;20246.75;;;-141.84;41.44
15260;BME280;34462;51.368;12.364;2023-04-19T12:01:04;20218.31;;;-141.84;41.75
15260;BME280;34462;51.368;12.364;2023-04-19T12:03:33;20210.16;;;-141.84;42.12
15260;BME280;34462;51.368;12.364;2023-04-19T12:06:02;20244.72;;;-141.84;41.38
15260;BME280;34462;51.368;12.364;2023-04-19T12:08:36;20220.34;;;-141.84;41.85
15260;BME280;34462;51.368;12.364;2023-04-19T12:11:05;20240.66;;;-141.84;41.58
15260;BME280;34462;51.368;12.364;2023-04-19T12:13:34;20216.25;;;-141.84;41.84
15260;BME280;34462;51.368;12.364;2023-04-19T12:16:05;20175.63;;;-141.84;41.41
15260;BME280;34462;51.368;12.364;2023-04-19T12:18:44;20145.13;;;-141.84;42.28
15260;BME280;34462;51.368;12.364;2023-04-19T12:21:25;20096.34;;;-141.84;42.66
15260;BME280;34462;51.368;12.364;2023-04-19T12:23:55;20100.41;;;-141.84;44.00
15260;BME280;34462;51.368;12.364;2023-04-19T12:26:24;20100.41;;;-141.84;42.71
15260;BME280;34462;51.368;12.364;2023-04-19T12:28:53;20132.94;;;-141.84;42.83
15260;BME280;34462;51.368;12.364;2023-04-19T12:31:22;20098.38;;;-141.84;43.18
15260;BME280;34462;51.368;12.364;2023-04-19T12:33:51;20114.63;;;-141.84;43.35
15260;BME280;34462;51.368;12.364;2023-04-19T12:36:19;20086.19;;;-141.84;44.79
15260;BME280;34462;51.368;12.364;2023-04-19T12:38:48;19972.38;;;-141.84;47.93
15260;BME280;34462;51.368;12.364;2023-04-19T12:41:16;19893.09;;;-141.84;50.05
15260;BME280;34462;51.368;12.364;2023-04-19T12:43:44;19854.50;;;-141.84;49.31
15260;BME280;34462;51.368;12.364;2023-04-19T12:46:12;19874.81;;;-141.84;50.46
15260;BME280;34462;51.368;12.364;2023-04-19T12:48:41;19919.53;;;-141.84;49.07